Time;durP1;ratioP1;P1;durP2;ratioP2;P2;SDS_P1;SDS_P2;PMS_P1;PMS_P2;Temp;Humidity;BMP_temperature;BMP_pressure;BME280_temperature;BME280_humidity;BME280_pressure;Samples;Min_cycle;Max_cycle;Signal;HPM_P1;HPM_P2
2023/12/23 00:00:10;;;;;;;;;1.67;0.67;;;;;10.41;79.63;101314.13;4994715;28;45210;-81
2023/12/23 00:02:36;;;;;;;;;2.00;2.00;;;;;10.32;80.13;101303.91;4994107;27;45341;-81
2023/12/23 00:05:01;;;;;;;;;1.00;1.00;;;;;10.40;79.60;101323.03;4994424;27;45275;-79
2023/12/23 00:07:26;;;;;;;;;4.33;2.67;;;;;10.44;79.19;101314.03;4994396;27;45338;-84
2023/12/23 00:09:51;;;;;;;;;2.33;1.00;;;;;10.48;79.38;101331.56;4994944;28;45658;-81
2023/12/23 00:12:17;;;;;;;;;1.00;1.00;;;;;10.40;80.00;101323.03;4993740;27;65777;-80
2023/12/23 00:14:42;;;;;;;;;2.00;1.67;;;;;10.46;79.58;101330.78;4994134;27;45406;-81
2023/12/23 00:17:07;;;;;;;;;3.50;2.00;;;;;10.47;80.95;101329.84;4994846;28;45321;-83
2023/12/23 00:19:33;;;;;;;;;2.00;2.00;;;;;10.51;80.96;101326.09;4993767;28;45353;-82
2023/12/23 00:21:58;;;;;;;;;3.00;2.00;;;;;10.41;81.54;101324.75;4994075;28;57801;-88
2023/12/23 00:24:29;;;;;;;;;2.00;2.00;;;;;10.50;81.33;101334.16;4996254;28;45353;-85
2023/12/23 00:26:57;;;;;;;;;4.00;3.00;;;;;10.50;81.11;101334.16;4996546;28;45231;-85
2023/12/23 00:29:23;;;;;;;;;2.00;2.00;;;;;10.53;81.56;101345.50;4995179;27;45316;-84
2023/12/23 00:31:49;;;;;;;;;1.00;1.00;;;;;10.52;81.78;101342.91;4995271;28;45348;-82
2023/12/23 00:34:14;;;;;;;;;5.00;2.00;;;;;10.58;81.15;101356.81;4994778;28;63198;-82
2023/12/23 00:36:39;;;;;;;;;1.00;1.00;;;;;10.44;81.84;101329.97;4998785;27;45321;-86
2023/12/23 00:39:05;;;;;;;;;2.67;2.33;;;;;10.53;81.30;101344.66;4999542;28;45754;-90
2023/12/23 00:41:30;;;;;;;;;2.33;1.00;;;;;10.42;81.81;101339.81;4995805;28;46171;-85
2023/12/23 00:43:55;;;;;;;;;0.00;0.00;;;;;10.45;82.13;101342.34;4993417;28;63478;-80
2023/12/23 00:46:21;;;;;;;;;2.33;1.00;;;;;10.51;81.61;101341.19;4994341;28;45312;-82
2023/12/23 00:48:46;;;;;;;;;1.00;1.00;;;;;10.50;81.49;101342.13;4994168;28;45336;-81
2023/12/23 00:51:11;;;;;;;;;0.00;0.00;;;;;10.42;81.63;101315.88;4993827;28;51758;-84
2023/12/23 00:53:37;;;;;;;;;1.00;1.00;;;;;10.51;80.84;101342.06;4993893;28;45364;-85
2023/12/23 00:56:02;;;;;;;;;3.00;1.00;;;;;10.51;81.02;101330.56;4995284;27;45248;-81
2023/12/23 00:58:28;;;;;;;;;1.67;1.67;;;;;10.62;80.67;101336.25;4997035;28;45167;-82
2023/12/23 01:00:53;;;;;;;;;1.67;1.00;;;;;10.58;80.90;101340.88;4995863;28;45230;-82
2023/12/23 01:03:18;;;;;;;;;3.00;2.00;;;;;10.50;80.69;101323.50;4993122;28;65764;-81
2023/12/23 01:05:44;;;;;;;;;1.00;0.00;;;;;10.56;81.30;101339.22;4996784;28;55187;-82
2023/12/23 01:08:09;;;;;;;;;3.00;0.00;;;;;10.48;80.97;101310.28;4996996;28;45256;-83
2023/12/23 01:10:34;;;;;;;;;1.00;1.00;;;;;10.51;80.59;101317.25;4997331;27;45188;-84
2023/12/23 01:13:00;;;;;;;;;1.00;1.00;;;;;10.43;80.95;101301.66;4996688;27;45199;-84
2023/12/23 01:15:25;;;;;;;;;1.00;1.00;;;;;10.38;81.02;101308.94;4997452;28;45697;-84
2023/12/23 01:17:50;;;;;;;;;1.00;1.00;;;;;10.45;80.71;101315.75;4997160;27;45622;-83
2023/12/23 01:20:16;;;;;;;;;3.33;1.00;;;;;10.32;80.81;101298.59;4997004;27;63082;-80
2023/12/23 01:22:41;;;;;;;;;2.00;2.00;;;;;10.45;81.01;101323.72;4999861;27;45386;-83
2023/12/23 01:25:07;;;;;;;;;3.00;0.67;;;;;10.42;80.91;101321.22;4998993;28;45502;-84
2023/12/23 01:27:33;;;;;;;;;1.00;1.00;;;;;10.43;80.57;101325.59;4997651;27;45352;-82
2023/12/23 01:29:58;;;;;;;;;1.00;1.00;;;;;10.43;79.96;101319.41;4996914;28;46214;-84
2023/12/23 01:32:23;;;;;;;;;2.00;0.00;;;;;10.48;80.40;101328.03;4997560;28;49397;-81
2023/12/23 01:34:49;;;;;;;;;1.67;0.00;;;;;10.50;80.74;101334.16;4997024;28;45415;-87
2023/12/23 01:37:14;;;;;;;;;1.00;1.00;;;;;10.52;79.97;101337.59;4995572;28;45532;-83
2023/12/23 01:39:39;;;;;;;;;2.00;0.67;;;;;10.55;79.79;101349.00;5011949;28;53134;-80
2023/12/23 01:42:05;;;;;;;;;3.33;0.67;;;;;10.52;79.65;101342.91;4997938;28;45336;-83
2023/12/23 01:44:30;;;;;;;;;1.33;1.33;;;;;10.53;80.13;101336.66;4998092;27;45301;-81
2023/12/23 01:46:57;;;;;;;;;3.00;1.00;;;;;10.54;79.58;101343.72;4996883;28;45646;-80
2023/12/23 01:49:23;;;;;;;;;0.67;0.67;;;;;10.54;80.06;101338.38;4996618;27;46379;-82
2023/12/23 01:51:50;;;;;;;;;0.67;0.67;;;;;10.44;80.77;101308.69;4996382;27;45393;-82
2023/12/23 01:54:15;;;;;;;;;0.00;0.00;;;;;10.44;79.80;101295.41;4996565;27;45383;-81
2023/12/23 01:56:42;;;;;;;;;1.00;0.00;;;;;10.49;80.44;101296.06;5008950;28;45711;-80
2023/12/23 01:59:07;;;;;;;;;1.33;1.33;;;;;10.53;80.67;101307.41;5006581;28;45254;-83
2023/12/23 02:01:33;;;;;;;;;0.00;0.00;;;;;10.50;80.02;101312.88;5002699;28;45562;-83
2023/12/23 02:03:58;;;;;;;;;0.00;0.00;;;;;10.55;79.75;101311.75;5001512;27;45196;-80
2023/12/23 02:06:23;;;;;;;;;0.00;0.00;;;;;10.52;79.10;101305.69;5001331;28;45304;-83
2023/12/23 02:08:49;;;;;;;;;1.00;0.00;;;;;10.52;78.77;101300.38;5001454;28;45400;-85
2023/12/23 02:11:44;;;;;;;;;2.67;0.00;;;;;10.42;78.44;101291.09;5001516;28;45326;-86
2023/12/23 02:14:24;;;;;;;;;1.00;1.00;;;;;10.50;78.34;101296.91;5002327;28;45403;-86
2023/12/23 02:16:51;;;;;;;;;1.00;0.00;;;;;10.50;78.65;101300.44;5000120;28;45222;-82
2023/12/23 02:19:16;;;;;;;;;0.00;0.00;;;;;10.52;77.90;101295.91;4999720;27;46701;-86
2023/12/23 02:21:41;;;;;;;;;0.00;0.00;;;;;10.52;77.45;101292.38;4998954;28;45320;-84
2023/12/23 02:24:07;;;;;;;;;0.00;0.00;;;;;10.49;77.17;101280.09;4997238;27;45297;-90
2023/12/23 02:26:36;;;;;;;;;0.00;0.00;;;;;10.47;77.82;101281.97;4997215;28;49858;-82
2023/12/23 02:29:02;;;;;;;;;0.00;0.00;;;;;10.50;77.06;101297.78;4996748;27;46045;-82
2023/12/23 02:31:29;;;;;;;;;2.00;0.67;;;;;10.52;77.21;101287.94;4995754;27;45223;-81
2023/12/23 02:33:54;;;;;;;;;2.00;0.67;;;;;10.53;76.60;101297.63;4995481;27;45279;-80
2023/12/23 02:36:21;;;;;;;;;0.00;0.00;;;;;10.55;76.07;101301.13;4996069;27;45607;-83
2023/12/23 02:38:50;;;;;;;;;0.00;0.00;;;;;10.59;76.71;101304.50;4995621;28;46040;-82
2023/12/23 02:41:15;;;;;;;;;0.00;0.00;;;;;10.57;76.20;101296.59;4995459;28;45465;-82
2023/12/23 02:43:40;;;;;;;;;1.00;0.00;;;;;10.52;75.71;101271.97;4994683;28;45395;-79
2023/12/23 02:46:06;;;;;;;;;1.00;0.00;;;;;10.53;75.98;101270.19;4995806;28;45616;-83
2023/12/23 02:48:31;;;;;;;;;0.00;0.00;;;;;10.61;75.53;101289.31;4995301;28;53517;-81
2023/12/23 02:50:56;;;;;;;;;3.33;0.00;;;;;10.61;75.66;101298.16;4996291;28;45492;-82
2023/12/23 02:53:22;;;;;;;;;0.00;0.00;;;;;10.63;75.75;101287.44;4996427;28;45404;-83
2023/12/23 02:55:47;;;;;;;;;0.00;0.00;;;;;10.65;75.05;101301.53;4996058;28;45670;-86
2023/12/23 02:58:12;;;;;;;;;0.33;0.33;;;;;10.63;75.32;101288.31;4994426;27;47493;-83
2023/12/23 03:00:38;;;;;;;;;0.00;0.00;;;;;10.61;75.91;101284.88;4995730;28;45366;-86
2023/12/23 03:03:03;;;;;;;;;1.00;0.00;;;;;10.62;75.21;101286.59;4994612;28;45251;-84
2023/12/23 03:05:28;;;;;;;;;0.00;0.00;;;;;10.72;75.14;101302.16;4995674;28;45562;-83
2023/12/23 03:07:54;;;;;;;;;1.00;0.00;;;;;10.73;75.17;101304.72;4995518;28;46344;-82
2023/12/23 03:10:19;;;;;;;;;1.00;0.00;;;;;10.64;74.01;101290.03;4995138;27;45398;-85
2023/12/23 03:12:44;;;;;;;;;0.00;0.00;;;;;10.71;74.75;101305.75;4994866;28;51066;-81
2023/12/23 03:15:10;;;;;;;;;0.00;0.00;;;;;10.68;75.00;101308.50;4995772;28;45246;-82
2023/12/23 03:17:35;;;;;;;;;0.67;0.00;;;;;10.71;74.86;101317.25;4994817;27;46057;-82
2023/12/23 03:20:00;;;;;;;;;0.33;0.33;;;;;10.74;74.48;101310.91;4994971;27;45254;-84
2023/12/23 03:22:26;;;;;;;;;0.67;0.00;;;;;10.72;74.37;101304.81;4995004;27;45280;-82
2023/12/23 03:24:51;;;;;;;;;2.00;0.33;;;;;10.74;74.22;101310.91;4995500;27;45317;-83
2023/12/23 03:27:18;;;;;;;;;0.00;0.00;;;;;10.71;73.62;101316.38;4993991;28;46183;-84
2023/12/23 03:29:44;;;;;;;;;0.00;0.00;;;;;10.69;73.91;101305.81;4995208;28;45432;-82
2023/12/23 03:32:09;;;;;;;;;0.00;0.00;;;;;10.72;74.03;101299.50;4994791;28;45358;-86
2023/12/23 03:34:35;;;;;;;;;0.00;0.00;;;;;10.63;73.92;101277.69;4995054;28;46063;-81
2023/12/23 03:37:00;;;;;;;;;0.67;0.00;;;;;10.65;74.11;101277.59;4994864;28;45506;-83
2023/12/23 03:39:25;;;;;;;;;1.00;0.00;;;;;10.74;73.86;101274.53;4994951;28;45327;-83
2023/12/23 03:41:51;;;;;;;;;0.67;0.00;;;;;10.73;74.38;101258.66;4995314;27;45356;-85
2023/12/23 03:44:16;;;;;;;;;0.00;0.00;;;;;10.71;74.06;101245.41;4994918;28;49981;-84
2023/12/23 03:46:41;;;;;;;;;0.00;0.00;;;;;10.71;74.09;101241.91;4994723;27;63458;-84
2023/12/23 03:49:07;;;;;;;;;0.00;0.00;;;;;10.74;74.16;101247.06;4995789;28;50944;-86
2023/12/23 03:51:32;;;;;;;;;0.00;0.00;;;;;10.61;73.87;101239.66;4994986;28;45450;-85
2023/12/23 03:53:57;;;;;;;;;0.00;0.00;;;;;10.64;74.84;101247.47;4997833;28;56010;-81
2023/12/23 03:56:22;;;;;;;;;0.00;0.00;;;;;10.70;74.33;101262.31;4994613;28;67310;-79
2023/12/23 03:58:48;;;;;;;;;1.67;0.00;;;;;10.71;75.14;101269.34;4994041;28;63442;-82
2023/12/23 04:01:15;;;;;;;;;0.00;0.00;;;;;10.68;74.56;101269.50;4994498;28;45379;-82
2023/12/23 04:03:41;;;;;;;;;1.00;0.00;;;;;10.70;74.72;101272.09;4995580;28;45526;-80
2023/12/23 04:06:06;;;;;;;;;0.00;0.00;;;;;10.67;74.85;101261.56;4994491;28;45436;-79
2023/12/23 04:08:31;;;;;;;;;1.00;0.00;;;;;10.64;75.25;101263.44;4995070;28;61277;-83
2023/12/23 04:10:58;;;;;;;;;0.00;0.00;;;;;10.67;75.63;101259.78;4995670;27;63657;-85
2023/12/23 04:13:24;;;;;;;;;0.00;0.00;;;;;10.65;75.65;101261.66;4994788;28;45577;-82
2023/12/23 04:15:49;;;;;;;;;0.33;0.00;;;;;10.60;74.79;101251.22;4992899;28;47320;-82
2023/12/23 04:18:14;;;;;;;;;1.00;0.00;;;;;10.54;74.89;101240.84;4993208;28;47165;-81
2023/12/23 04:20:41;;;;;;;;;1.00;0.00;;;;;10.55;75.48;101239.09;4994639;28;45401;-82
2023/12/23 04:23:07;;;;;;;;;2.00;0.00;;;;;10.54;75.97;101230.22;4994882;28;45318;-82
2023/12/23 04:25:32;;;;;;;;;1.00;0.00;;;;;10.54;75.10;101230.22;4993182;28;47287;-82
2023/12/23 04:27:57;;;;;;;;;0.00;0.00;;;;;10.52;75.98;101234.75;4993666;28;62702;-82
2023/12/23 04:30:22;;;;;;;;;0.00;0.00;;;;;10.45;76.10;101213.84;4993443;28;63705;-82
2023/12/23 04:32:48;;;;;;;;;0.00;0.00;;;;;10.37;76.14;101192.91;4995822;28;45165;-82
2023/12/23 04:35:14;;;;;;;;;1.67;0.00;;;;;10.52;75.94;101239.19;4996257;28;45289;-82
2023/12/23 04:37:41;;;;;;;;;1.00;0.00;;;;;10.44;77.05;101231.59;4993895;28;45261;-82
2023/12/23 04:40:08;;;;;;;;;0.00;0.00;;;;;10.50;77.25;101249.91;4994739;28;45419;-82
2023/12/23 04:42:33;;;;;;;;;0.00;0.00;;;;;10.55;77.75;101247.94;4994510;28;45439;-83
2023/12/23 04:44:58;;;;;;;;;0.67;0.00;;;;;10.54;77.52;101243.50;4993514;28;52681;-81
2023/12/23 04:47:24;;;;;;;;;0.00;0.00;;;;;10.53;77.85;101236.47;4994594;28;54290;-85
2023/12/23 04:49:49;;;;;;;;;0.00;0.00;;;;;10.45;78.87;101235.97;4994301;28;46067;-81
2023/12/23 04:52:14;;;;;;;;;0.00;0.00;;;;;10.51;78.39;101242.78;4994968;27;45580;-83
2023/12/23 04:54:40;;;;;;;;;1.00;0.00;;;;;10.47;78.32;101250.06;4993528;28;58722;-82
2023/12/23 04:57:05;;;;;;;;;0.00;0.00;;;;;10.53;78.36;101254.22;4993828;28;46481;-82
2023/12/23 04:59:30;;;;;;;;;0.00;0.00;;;;;10.51;78.70;101251.63;4994217;27;45492;-81
2023/12/23 05:01:56;;;;;;;;;2.00;0.33;;;;;10.44;78.83;101218.28;4993947;28;46247;-82
2023/12/23 05:04:21;;;;;;;;;0.00;0.00;;;;;10.48;78.96;101224.31;4993814;28;45261;-81
2023/12/23 05:06:46;;;;;;;;;0.00;0.00;;;;;10.55;77.80;101253.25;4993991;28;45254;-81
2023/12/23 05:09:12;;;;;;;;;0.00;0.00;;;;;10.45;78.09;101243.94;4993332;28;59874;-81
2023/12/23 05:11:37;;;;;;;;;0.00;0.00;;;;;10.47;77.88;101236.75;4994298;28;45376;-85
2023/12/23 05:14:02;;;;;;;;;0.00;0.00;;;;;10.56;77.20;101241.66;4993330;27;45999;-82
2023/12/23 05:16:28;;;;;;;;;0.00;0.00;;;;;10.59;77.09;101243.31;4994908;27;45236;-86
2023/12/23 05:18:53;;;;;;;;;0.33;0.33;;;;;10.49;76.58;101226.91;4996117;28;45238;-84
2023/12/23 05:21:19;;;;;;;;;0.00;0.00;;;;;10.43;76.37;101221.88;4995993;28;45204;-80
2023/12/23 05:23:44;;;;;;;;;0.00;0.00;;;;;10.56;76.80;101236.34;4995985;27;45317;-84
2023/12/23 05:26:09;;;;;;;;;0.00;0.00;;;;;10.58;76.69;101245.13;4994359;28;61691;-84
2023/12/23 05:28:35;;;;;;;;;2.00;0.00;;;;;10.55;75.99;101225.78;4993938;28;45341;-81
2023/12/23 05:31:00;;;;;;;;;3.00;0.00;;;;;10.53;75.74;101223.16;4993764;27;45309;-83
2023/12/23 05:33:25;;;;;;;;;0.67;0.67;;;;;10.49;75.54;101212.75;4992703;28;46856;-81
2023/12/23 05:35:51;;;;;;;;;0.00;0.00;;;;;10.55;76.06;101226.66;4995903;28;45309;-83
2023/12/23 05:38:17;;;;;;;;;0.00;0.00;;;;;10.59;75.70;101232.69;4995241;27;45391;-82
2023/12/23 05:40:42;;;;;;;;;0.00;0.00;;;;;10.59;75.17;101244.19;4995596;28;45321;-82
2023/12/23 05:43:07;;;;;;;;;1.00;1.00;;;;;10.46;74.52;101200.47;4996619;27;62388;-86
2023/12/23 05:45:33;;;;;;;;;0.00;0.00;;;;;10.57;74.79;101224.78;4995618;27;45863;-84
2023/12/23 05:47:58;;;;;;;;;5.00;0.67;;;;;10.58;74.63;101231.81;4995828;28;45402;-84
2023/12/23 05:50:23;;;;;;;;;0.00;0.00;;;;;10.52;74.00;101221.44;4996499;28;45540;-86
2023/12/23 05:52:49;;;;;;;;;0.00;0.00;;;;;10.54;73.32;101235.53;4997382;28;63819;-89
2023/12/23 05:55:14;;;;;;;;;0.00;0.00;;;;;10.52;73.61;101218.78;4997698;27;45352;-89
2023/12/23 05:57:39;;;;;;;;;1.00;1.00;;;;;10.54;74.05;101224.88;4995711;27;45451;-84
2023/12/23 06:00:06;;;;;;;;;1.67;0.00;;;;;10.54;73.73;101224.03;4995990;28;47204;-83
2023/12/23 06:02:31;;;;;;;;;0.00;0.00;;;;;10.58;73.37;101226.50;4996443;28;46010;-83
2023/12/23 06:04:57;;;;;;;;;0.00;0.00;;;;;10.55;72.89;101223.97;4996619;28;45196;-83
2023/12/23 06:07:23;;;;;;;;;2.00;0.00;;;;;10.59;72.58;101222.03;4996647;28;45230;-81
2023/12/23 06:09:48;;;;;;;;;0.00;0.00;;;;;10.60;72.46;101229.09;5000513;27;45650;-82
2023/12/23 06:12:13;;;;;;;;;0.33;0.33;;;;;10.57;71.81;101227.44;4995321;28;65728;-82
2023/12/23 06:14:40;;;;;;;;;0.00;0.00;;;;;10.56;71.84;101230.16;4995028;27;54375;-83
2023/12/23 06:17:05;;;;;;;;;0.00;0.00;;;;;10.50;72.26;101206.50;4995972;28;45265;-82
2023/12/23 06:19:31;;;;;;;;;0.00;0.00;;;;;10.49;71.92;101221.59;4995861;27;45275;-84
2023/12/23 06:21:56;;;;;;;;;0.00;0.00;;;;;10.54;71.56;101230.22;4995536;28;49070;-83
2023/12/23 06:24:21;;;;;;;;;0.33;0.00;;;;;10.54;71.54;101234.66;4995740;28;49865;-82
2023/12/23 06:26:47;;;;;;;;;0.00;0.00;;;;;10.49;71.37;101237.53;4995820;28;45646;-83
2023/12/23 06:29:12;;;;;;;;;0.00;0.00;;;;;10.42;71.38;101221.97;4995699;28;45444;-81
2023/12/23 06:31:37;;;;;;;;;0.00;0.00;;;;;10.56;71.89;101244.31;4994235;27;46022;-79
2023/12/23 06:34:03;;;;;;;;;1.33;0.00;;;;;10.58;71.63;101253.09;4995975;27;45443;-81
2023/12/23 06:36:29;;;;;;;;;0.00;0.00;;;;;10.41;71.29;101217.53;4995470;28;45304;-82
2023/12/23 06:38:55;;;;;;;;;0.00;0.00;;;;;10.50;71.90;101233.94;4995896;27;45272;-81
2023/12/23 06:41:20;;;;;;;;;0.00;0.00;;;;;10.54;71.28;101232.88;4994817;27;50122;-82
2023/12/23 06:43:46;;;;;;;;;0.00;0.00;;;;;10.58;71.92;101241.59;4995607;28;46009;-83
2023/12/23 06:46:11;;;;;;;;;0.67;0.00;;;;;10.56;71.61;101236.34;4994862;28;66363;-82
2023/12/23 06:48:37;;;;;;;;;3.00;0.00;;;;;10.62;71.51;101233.38;4995969;27;45279;-83
2023/12/23 06:51:03;;;;;;;;;1.00;1.00;;;;;10.65;71.71;101232.38;4996463;28;45350;-82
2023/12/23 06:53:28;;;;;;;;;1.33;0.00;;;;;10.61;70.99;101220.16;4996316;27;45183;-82
2023/12/23 06:55:54;;;;;;;;;0.00;0.00;;;;;10.60;71.11;101219.31;5000717;28;45225;-80
2023/12/23 06:58:19;;;;;;;;;2.00;0.00;;;;;10.66;71.78;101243.88;4999477;28;56593;-80
2023/12/23 07:00:44;;;;;;;;;1.67;0.00;;;;;10.59;71.58;101233.53;4994575;28;49471;-85
2023/12/23 07:03:10;;;;;;;;;1.67;0.00;;;;;10.74;71.25;101258.56;4995099;28;45232;-84
2023/12/23 07:05:35;;;;;;;;;0.00;0.00;;;;;10.74;71.16;101255.91;4994677;28;52169;-82
2023/12/23 07:08:00;;;;;;;;;0.00;0.00;;;;;10.74;71.96;101255.91;4995500;28;45291;-84
2023/12/23 07:10:25;;;;;;;;;0.00;0.00;;;;;10.73;70.88;101266.63;4994849;28;60594;-81
2023/12/23 07:12:51;;;;;;;;;1.00;1.00;;;;;10.69;71.71;101246.44;4995275;27;51917;-81
2023/12/23 07:15:16;;;;;;;;;0.33;0.33;;;;;10.72;71.24;101256.91;4994252;28;45521;-83
2023/12/23 07:17:41;;;;;;;;;0.00;0.00;;;;;10.69;71.66;101249.94;4995525;28;45365;-85
2023/12/23 07:20:08;;;;;;;;;1.67;0.00;;;;;10.65;71.72;101237.69;4995229;28;45397;-86
2023/12/23 07:22:35;;;;;;;;;0.00;0.00;;;;;10.74;72.34;101247.06;4995462;27;45294;-88
2023/12/23 07:25:02;;;;;;;;;0.00;0.00;;;;;10.66;71.61;101246.53;4993409;28;54163;-88
2023/12/23 07:27:27;;;;;;;;;0.00;0.00;;;;;10.69;71.51;101260.59;4995836;27;45165;-87
2023/12/23 07:29:52;;;;;;;;;1.00;0.00;;;;;10.59;72.28;101249.50;4995544;27;45354;-85
2023/12/23 07:32:18;;;;;;;;;0.00;0.00;;;;;10.58;71.85;101253.09;4996010;28;45375;-88
2023/12/23 07:34:43;;;;;;;;;0.00;0.00;;;;;10.57;72.21;101261.16;4995441;28;45283;-89
2023/12/23 07:37:09;;;;;;;;;0.00;0.00;;;;;10.71;71.89;101268.50;4996766;28;49189;-85
2023/12/23 07:39:34;;;;;;;;;1.00;0.00;;;;;10.70;72.25;101272.09;5010834;28;46034;-86
2023/12/23 07:41:59;;;;;;;;;0.00;0.00;;;;;10.68;72.15;101273.94;4995676;28;45719;-84
2023/12/23 07:44:25;;;;;;;;;0.00;0.00;;;;;10.66;72.09;101281.13;4995165;27;45356;-86
2023/12/23 07:46:50;;;;;;;;;0.00;0.00;;;;;10.68;72.47;101289.88;5002217;28;45578;-83
2023/12/23 07:49:16;;;;;;;;;0.00;0.00;;;;;10.58;72.44;101277.03;4995323;28;62304;-86
2023/12/23 07:51:41;;;;;;;;;0.00;0.00;;;;;10.56;72.39;101260.28;4995785;27;45437;-84
2023/12/23 07:54:06;;;;;;;;;0.00;0.00;;;;;10.72;72.16;101270.22;4996160;28;45495;-81
2023/12/23 07:56:32;;;;;;;;;0.00;0.00;;;;;10.61;72.69;101247.63;4995816;28;45516;-84
2023/12/23 07:58:57;;;;;;;;;0.00;0.00;;;;;10.70;72.22;101256.13;4993631;28;47207;-84
2023/12/23 08:01:23;;;;;;;;;0.00;0.00;;;;;10.78;72.14;101260.16;4994653;28;45363;-82
2023/12/23 08:03:48;;;;;;;;;3.00;0.00;;;;;10.78;72.26;101243.31;4995330;28;45373;-82
2023/12/23 08:06:15;;;;;;;;;0.00;0.00;;;;;10.82;72.41;101244.94;4995575;28;45366;-85
2023/12/23 08:08:41;;;;;;;;;0.00;0.00;;;;;10.84;72.07;101243.06;4995088;28;45910;-84
2023/12/23 08:11:06;;;;;;;;;0.67;0.00;;;;;10.92;71.74;101248.84;4994920;28;45349;-84
2023/12/23 08:13:32;;;;;;;;;0.00;0.00;;;;;10.86;72.22;101238.50;4995051;28;45927;-84
2023/12/23 08:15:57;;;;;;;;;0.00;0.00;;;;;10.88;71.96;101240.16;4997511;28;45243;-84
2023/12/23 08:18:23;;;;;;;;;0.00;0.00;;;;;10.78;71.96;101236.19;4995403;27;45247;-85
2023/12/23 08:20:48;;;;;;;;;0.00;0.00;;;;;10.90;72.71;101258.72;4994919;28;65474;-83
2023/12/23 08:23:13;;;;;;;;;1.00;0.00;;;;;10.85;72.18;101258.06;4998787;28;45185;-82
2023/12/23 08:25:39;;;;;;;;;0.00;0.00;;;;;10.87;72.62;101269.50;4994384;28;60453;-81
2023/12/23 08:28:05;;;;;;;;;0.00;0.00;;;;;10.80;72.49;101263.59;4994467;28;46027;-83
2023/12/23 08:30:30;;;;;;;;;0.00;0.00;;;;;10.75;73.31;101254.09;4994850;27;45381;-83
2023/12/23 08:32:55;;;;;;;;;3.67;0.00;;;;;10.92;72.54;101286.13;4996688;28;45313;-85
2023/12/23 08:35:21;;;;;;;;;1.00;0.00;;;;;10.95;72.93;101293.13;4995576;28;49189;-81
2023/12/23 08:37:47;;;;;;;;;0.33;0.00;;;;;10.97;72.64;101291.25;4995641;27;45489;-83
2023/12/23 08:40:12;;;;;;;;;1.00;1.00;;;;;10.91;72.58;101277.25;4992835;27;49116;-83
2023/12/23 08:42:37;;;;;;;;;3.00;1.00;;;;;10.90;72.85;101285.31;4995520;28;45411;-86
2023/12/23 08:45:03;;;;;;;;;0.00;0.00;;;;;10.96;73.13;101306.34;4994589;28;45458;-85
2023/12/23 08:47:28;;;;;;;;;0.67;0.67;;;;;11.01;73.68;101306.13;4994388;28;45485;-84
2023/12/23 08:49:54;;;;;;;;;1.67;0.00;;;;;10.97;72.66;101305.41;4992711;28;58653;-83
2023/12/23 08:52:20;;;;;;;;;0.67;0.00;;;;;10.98;72.80;101317.78;4998552;28;46367;-84
2023/12/23 08:54:45;;;;;;;;;0.67;0.67;;;;;10.94;73.34;101297.56;4996459;28;45506;-83
2023/12/23 08:57:11;;;;;;;;;0.00;0.00;;;;;11.00;73.03;101313.25;4993687;28;45601;-84
2023/12/23 08:59:36;;;;;;;;;4.00;0.00;;;;;11.01;73.22;101306.13;4993543;28;52192;-84
2023/12/23 09:02:03;;;;;;;;;1.00;1.00;;;;;11.00;73.43;101286.63;4994362;28;48248;-84
2023/12/23 09:04:29;;;;;;;;;3.33;0.00;;;;;10.87;73.81;101265.06;4994037;28;45493;-84
2023/12/23 09:06:55;;;;;;;;;0.00;0.00;;;;;10.97;74.06;101269.94;4993870;27;45323;-85
2023/12/23 09:09:21;;;;;;;;;1.67;0.00;;;;;10.99;74.01;101260.94;4994415;28;45263;-85
2023/12/23 09:11:46;;;;;;;;;1.67;0.00;;;;;11.15;74.43;101293.88;4994477;28;45313;-84
2023/12/23 09:14:12;;;;;;;;;0.00;0.00;;;;;11.14;73.83;101291.31;4994486;28;45391;-84
2023/12/23 09:16:38;;;;;;;;;2.00;0.00;;;;;11.29;73.72;101295.03;5002048;28;45822;-82
2023/12/23 09:19:04;;;;;;;;;2.00;0.00;;;;;11.31;73.45;101295.81;5005104;28;45349;-84
2023/12/23 09:21:29;;;;;;;;;2.00;0.00;;;;;11.28;73.07;101282.66;5000989;28;45351;-88
2023/12/23 09:23:54;;;;;;;;;0.00;0.00;;;;;11.40;72.62;101287.41;5006816;28;45329;-88
2023/12/23 09:26:20;;;;;;;;;0.00;0.00;;;;;11.38;72.17;101286.63;5004129;28;64444;-84
2023/12/23 09:28:45;;;;;;;;;1.00;1.00;;;;;11.51;72.16;101298.41;5006664;28;45288;-84
2023/12/23 09:31:11;;;;;;;;;0.67;0.67;;;;;11.55;72.54;101307.09;5003023;28;45458;-89
2023/12/23 09:33:38;;;;;;;;;0.00;0.00;;;;;11.63;72.01;101313.78;5000323;28;47346;-89
2023/12/23 09:36:05;;;;;;;;;1.67;0.00;;;;;11.59;71.91;101298.91;5001071;27;45394;-82
2023/12/23 09:38:30;;;;;;;;;0.00;0.00;;;;;11.35;72.13;101265.47;5002101;28;45228;-87
2023/12/23 09:40:55;;;;;;;;;0.00;0.00;;;;;11.62;72.19;101311.19;4999417;28;45174;-85
2023/12/23 09:43:22;;;;;;;;;0.67;0.00;;;;;11.40;72.54;101263.44;4999715;27;45197;-87
2023/12/23 09:45:48;;;;;;;;;1.00;1.00;;;;;11.61;72.23;101289.03;5005527;28;45421;-82
2023/12/23 09:48:14;;;;;;;;;3.33;2.00;;;;;11.64;72.37;101286.19;5003640;28;45395;-82
2023/12/23 09:50:39;;;;;;;;;3.00;3.00;;;;;11.50;72.33;101243.41;5000397;28;45431;-83
2023/12/23 09:53:06;;;;;;;;;1.33;1.00;;;;;11.71;72.60;101274.28;5001339;28;45296;-83
2023/12/23 09:55:32;;;;;;;;;1.00;1.00;;;;;11.64;72.81;101267.56;4998509;27;47183;-80
2023/12/23 09:57:58;;;;;;;;;1.00;0.00;;;;;11.67;72.40;101261.19;4997603;28;45346;-83
2023/12/23 10:00:24;;;;;;;;;2.00;0.33;;;;;11.80;72.84;101278.34;4996550;27;45297;-83
2023/12/23 10:02:49;;;;;;;;;0.33;0.33;;;;;11.79;72.98;101288.13;4997261;27;45302;-82
2023/12/23 10:05:15;;;;;;;;;1.00;1.00;;;;;11.81;72.57;101286.25;4995851;27;46202;-86
2023/12/23 10:07:40;;;;;;;;;0.33;0.00;;;;;11.71;72.77;101284.94;4996316;28;45358;-82
2023/12/23 10:10:06;;;;;;;;;2.00;1.00;;;;;11.81;72.87;101302.25;4997088;28;45341;-84
2023/12/23 10:12:33;;;;;;;;;1.67;0.00;;;;;11.84;73.02;101287.03;4996936;28;45358;-81
2023/12/23 10:14:58;;;;;;;;;1.67;0.00;;;;;11.73;73.24;101277.75;4996393;28;45487;-83
2023/12/23 10:17:24;;;;;;;;;1.00;1.00;;;;;11.79;72.87;101293.47;4996909;27;47332;-83
2023/12/23 10:19:49;;;;;;;;;1.00;1.00;;;;;11.79;72.80;101293.47;4996895;28;45427;-83
2023/12/23 10:22:18;;;;;;;;;2.00;1.00;;;;;11.77;73.08;101284.66;4996557;28;45595;-85
2023/12/23 10:24:43;;;;;;;;;0.33;0.33;;;;;11.80;73.12;101281.88;4996130;27;45349;-82
2023/12/23 10:27:10;;;;;;;;;0.00;0.00;;;;;11.76;72.79;101277.59;4995637;28;61106;-82
2023/12/23 10:29:41;;;;;;;;;1.67;1.00;;;;;11.89;73.01;101290.34;4996515;28;45267;-82
2023/12/23 10:32:11;;;;;;;;;2.00;1.00;;;;;11.74;72.81;101266.16;4997883;28;45330;-81
2023/12/23 10:34:43;;;;;;;;;1.00;1.00;;;;;11.91;73.11;101296.47;4996250;28;46584;-81
2023/12/23 10:37:10;;;;;;;;;0.00;0.00;;;;;11.96;73.35;101286.41;4996080;27;45424;-82
2023/12/23 10:39:45;;;;;;;;;0.33;0.33;;;;;11.96;73.28;101267.75;4996785;28;45286;-83
2023/12/23 10:42:13;;;;;;;;;2.00;1.00;;;;;11.94;72.87;101272.31;4996388;28;45376;-80
2023/12/23 10:44:42;;;;;;;;;1.00;1.00;;;;;11.85;73.59;101270.09;4996490;28;45380;-82
2023/12/23 10:47:09;;;;;;;;;2.00;1.00;;;;;11.81;73.59;101270.25;4996560;27;45294;-87
2023/12/23 10:49:35;;;;;;;;;2.33;2.00;;;;;11.91;73.57;101276.00;5001789;27;45261;-88
2023/12/23 10:52:01;;;;;;;;;7.33;1.00;;;;;11.96;73.32;101271.28;5002500;28;45745;-91
2023/12/23 10:54:27;;;;;;;;;0.00;0.00;;;;;11.91;73.38;101248.47;5001428;27;45232;-89
2023/12/23 10:56:55;;;;;;;;;1.33;0.67;;;;;12.02;73.56;101254.13;4999950;27;45345;-86
2023/12/23 10:59:21;;;;;;;;;0.67;0.00;;;;;12.02;73.36;101272.78;4999333;27;45436;-90
2023/12/23 11:01:46;;;;;;;;;0.00;0.00;;;;;12.03;73.82;101258.53;5002865;28;45322;-89
2023/12/23 11:04:12;;;;;;;;;0.00;0.00;;;;;12.08;73.45;101259.13;4999990;27;45598;-83
2023/12/23 11:06:41;;;;;;;;;2.67;1.00;;;;;12.12;73.44;101252.72;5007732;28;45292;-83
2023/12/23 11:09:08;;;;;;;;;0.00;0.00;;;;;12.18;73.43;101244.38;5005714;28;45229;-87
2023/12/23 11:11:35;;;;;;;;;0.00;0.00;;;;;12.21;73.21;101238.88;4998294;28;45631;-90
2023/12/23 11:14:00;;;;;;;;;1.00;1.00;;;;;12.25;73.33;101232.47;4996634;27;45543;-89
2023/12/23 11:16:26;;;;;;;;;2.00;1.00;;;;;12.29;72.97;101230.50;4997991;27;45329;-91